createdAt,value
2022-09-14T00:01:25.192Z,57.47
2022-09-14T00:03:58.583Z,49.67
2022-09-14T00:06:25.834Z,48.35
2022-09-14T00:08:54.503Z,51.42
2022-09-14T00:11:22.783Z,55.15
2022-09-14T00:13:49.989Z,54.00
2022-09-14T00:16:22.950Z,53.25
2022-09-14T00:18:54.224Z,54.63
2022-09-14T00:21:21.209Z,52.25
2022-09-14T00:23:48.044Z,51.05
2022-09-14T00:26:17.719Z,53.92
2022-09-14T00:28:46.838Z,56.50
2022-09-14T00:31:13.978Z,53.80
2022-09-14T00:33:45.046Z,56.65
2022-09-14T00:36:14.999Z,62.20
2022-09-14T00:38:42.507Z,63.70
2022-09-14T00:41:17.034Z,57.40
2022-09-14T00:44:27.677Z,50.85
2022-09-14T00:46:56.871Z,51.58
2022-09-14T00:49:35.987Z,51.92
2022-09-14T00:52:11.092Z,54.28
2022-09-14T00:54:50.104Z,54.85
2022-09-14T00:57:18.001Z,56.83
2022-09-14T00:59:47.119Z,55.03
2022-09-14T01:02:17.049Z,54.53
2022-09-14T01:04:44.358Z,53.58
2022-09-14T01:07:29.745Z,55.15
2022-09-14T01:10:08.238Z,58.10
2022-09-14T01:12:51.437Z,53.83
2022-09-14T01:15:27.330Z,62.92
2022-09-14T01:18:21.141Z,63.90
2022-09-14T01:20:56.750Z,61.30
2022-09-14T01:23:44.701Z,61.70
2022-09-14T01:26:45.138Z,59.60
2022-09-14T01:29:34.915Z,54.28
2022-09-14T01:32:08.930Z,61.33
2022-09-14T01:34:51.943Z,61.97
2022-09-14T01:37:24.212Z,59.90
2022-09-14T01:39:56.596Z,58.20
2022-09-14T01:42:26.470Z,54.28
2022-09-14T01:44:56.936Z,58.90
2022-09-14T01:47:28.550Z,58.97
2022-09-14T01:50:06.181Z,57.33
2022-09-14T01:52:43.473Z,51.15
2022-09-14T01:55:16.699Z,58.80
2022-09-14T01:58:00.220Z,56.10
2022-09-14T02:00:28.128Z,56.90
2022-09-14T02:03:00.573Z,59.47
2022-09-14T02:05:39.081Z,66.10
2022-09-14T02:08:05.454Z,76.28
2022-09-14T02:10:32.521Z,68.15
2022-09-14T02:12:58.894Z,73.70
2022-09-14T02:15:28.168Z,74.07
2022-09-14T02:17:54.762Z,71.78
2022-09-14T02:20:34.037Z,72.93
2022-09-14T02:23:00.658Z,70.90
2022-09-14T02:25:27.093Z,71.65
2022-09-14T02:27:53.501Z,68.57
2022-09-14T02:30:20.741Z,68.60
2022-09-14T02:33:12.224Z,76.75
2022-09-14T02:35:45.155Z,72.95
2022-09-14T02:38:21.836Z,71.90
2022-09-14T02:41:37.107Z,70.35
2022-09-14T02:44:25.988Z,72.80
2022-09-14T02:47:14.074Z,70.72
2022-09-14T02:49:54.315Z,76.72
2022-09-14T02:52:47.127Z,77.75
2022-09-14T02:55:19.035Z,73.68
2022-09-14T02:58:07.754Z,72.55
2022-09-14T03:00:41.223Z,74.55
2022-09-14T03:03:10.378Z,75.30
2022-09-14T03:05:37.206Z,69.47
2022-09-14T03:08:04.260Z,75.30
2022-09-14T03:10:31.680Z,70.50
2022-09-14T03:12:58.810Z,71.40
2022-09-14T03:15:26.458Z,70.93
2022-09-14T03:17:53.427Z,70.28
2022-09-14T03:20:22.800Z,75.97
2022-09-14T03:22:49.319Z,67.38
2022-09-14T03:25:15.947Z,72.68
2022-09-14T03:27:42.318Z,69.45
2022-09-14T03:30:09.294Z,70.82
2022-09-14T03:32:35.659Z,72.05
2022-09-14T03:35:02.329Z,70.88
2022-09-14T03:37:28.660Z,68.40
2022-09-14T03:39:55.143Z,68.65
2022-09-14T03:42:21.555Z,70.95
2022-09-14T03:44:47.946Z,70.82
2022-09-14T03:47:14.244Z,68.55
2022-09-14T03:49:40.585Z,74.15
2022-09-14T03:52:07.717Z,73.35
2022-09-14T03:54:34.045Z,72.47
2022-09-14T03:57:00.511Z,70.18
2022-09-14T03:59:26.859Z,73.70
2022-09-14T04:01:53.334Z,74.75
2022-09-14T04:04:19.671Z,77.15
2022-09-14T04:06:46.077Z,76.60
2022-09-14T04:09:12.409Z,74.53
2022-09-14T04:11:38.724Z,68.97
2022-09-14T04:14:05.762Z,69.05
2022-09-14T04:16:32.227Z,67.25
2022-09-14T04:18:58.633Z,69.20
2022-09-14T04:21:26.205Z,73.35
2022-09-14T04:24:14.092Z,73.63
2022-09-14T04:26:40.696Z,73.78
2022-09-14T04:29:07.075Z,77.57
2022-09-14T04:31:33.645Z,82.15
2022-09-14T04:34:00.089Z,82.28
2022-09-14T04:36:30.148Z,81.38
2022-09-14T04:39:02.099Z,82.65
2022-09-14T04:41:29.646Z,81.75
2022-09-14T04:43:56.965Z,81.35
2022-09-14T04:46:26.864Z,82.32
2022-09-14T04:48:53.850Z,82.88
2022-09-14T04:51:23.439Z,86.15
2022-09-14T04:53:51.910Z,87.55
2022-09-14T04:56:20.166Z,91.97
2022-09-14T04:58:51.695Z,101.15
2022-09-14T05:01:21.159Z,107.63
2022-09-14T05:03:48.231Z,105.10
2022-09-14T05:06:24.174Z,104.72
2022-09-14T05:08:51.624Z,100.60
2022-09-14T05:11:21.241Z,94.07
2022-09-14T05:13:50.005Z,85.80
2022-09-14T05:16:26.264Z,94.03
2022-09-14T05:18:58.105Z,85.93
2022-09-14T05:21:25.009Z,81.45
2022-09-14T05:24:00.336Z,92.50
2022-09-14T05:26:28.322Z,96.88
2022-09-14T05:28:57.010Z,88.63
2022-09-14T05:31:24.328Z,83.60
2022-09-14T05:33:51.391Z,87.90
2022-09-14T05:36:17.944Z,90.43
2022-09-14T05:38:44.443Z,85.00
2022-09-14T05:41:12.967Z,85.85
2022-09-14T05:43:39.883Z,85.75
2022-09-14T05:46:11.182Z,83.00
2022-09-14T05:48:38.727Z,88.55
2022-09-14T05:51:16.442Z,99.53
2022-09-14T05:53:54.025Z,100.07
2022-09-14T05:56:23.033Z,109.15
2022-09-14T05:58:49.892Z,115.50
2022-09-14T06:01:22.127Z,110.95
2022-09-14T06:03:49.208Z,102.88
2022-09-14T06:06:18.039Z,103.07
2022-09-14T06:08:45.119Z,97.00
2022-09-14T06:11:14.883Z,91.35
2022-09-14T06:13:42.004Z,101.68
2022-09-14T06:16:12.912Z,96.20
2022-09-14T06:18:40.439Z,96.07
2022-09-14T06:21:09.596Z,95.10
2022-09-14T06:23:36.764Z,98.18
2022-09-14T06:26:05.140Z,100.68
2022-09-14T06:28:32.642Z,106.50
2022-09-14T06:30:59.039Z,116.93
2022-09-14T06:33:25.431Z,112.85
2022-09-14T06:36:00.452Z,122.97
2022-09-14T06:38:27.910Z,117.82
2022-09-14T06:40:59.572Z,112.55
2022-09-14T06:43:31.967Z,109.10
2022-09-14T06:46:10.934Z,104.07
2022-09-14T06:48:49.069Z,97.07
2022-09-14T06:51:24.494Z,107.20
2022-09-14T06:53:51.807Z,114.22
2022-09-14T06:56:18.544Z,115.07
2022-09-14T06:58:45.338Z,121.50
2022-09-14T07:01:14.956Z,122.40
2022-09-14T07:03:43.793Z,125.95
2022-09-14T07:06:13.767Z,115.28
2022-09-14T07:08:40.900Z,113.38
2022-09-14T07:11:08.788Z,112.00
2022-09-14T07:13:35.892Z,111.53
2022-09-14T07:16:05.652Z,110.28
2022-09-14T07:18:32.803Z,110.55
2022-09-14T07:21:19.187Z,111.65
2022-09-14T07:23:46.893Z,107.85
2022-09-14T07:26:14.473Z,103.07
2022-09-14T07:28:41.986Z,101.40
2022-09-14T07:31:22.221Z,92.50
2022-09-14T07:33:52.002Z,95.85
2022-09-14T07:36:18.509Z,100.60
2022-09-14T07:38:53.117Z,98.95
2022-09-14T07:41:25.584Z,97.15
2022-09-14T07:43:53.921Z,100.90
2022-09-14T07:46:21.383Z,104.85
2022-09-14T07:48:49.061Z,103.85
2022-09-14T07:51:16.010Z,102.30
2022-09-14T07:53:43.563Z,103.95
2022-09-14T07:56:11.587Z,101.78
2022-09-14T07:58:38.860Z,100.32
2022-09-14T08:01:11.868Z,101.35
2022-09-14T08:03:42.156Z,99.55
2022-09-14T08:06:15.081Z,105.70
2022-09-14T08:08:44.568Z,111.18
2022-09-14T08:11:35.126Z,106.57
2022-09-14T08:14:04.409Z,109.45
2022-09-14T08:16:32.411Z,109.18
2022-09-14T08:19:04.486Z,117.55
2022-09-14T08:21:32.523Z,108.82
2022-09-14T08:24:02.428Z,107.65
2022-09-14T08:26:29.281Z,101.93
2022-09-14T08:28:56.309Z,113.32
2022-09-14T08:31:27.138Z,118.80
2022-09-14T08:33:57.206Z,115.15
2022-09-14T08:36:25.111Z,109.90
2022-09-14T08:38:51.642Z,112.43
2022-09-14T08:41:37.849Z,105.10
2022-09-14T08:44:19.726Z,105.03
2022-09-14T08:46:54.750Z,112.57
2022-09-14T08:49:42.978Z,108.90
2022-09-14T08:52:23.046Z,114.82
2022-09-14T08:55:01.656Z,117.22
2022-09-14T08:57:37.901Z,121.93
2022-09-14T09:00:13.272Z,120.07
2022-09-14T09:03:15.070Z,124.72
2022-09-14T09:05:44.868Z,112.78
2022-09-14T09:09:32.836Z,117.63
2022-09-14T09:12:00.794Z,118.25
2022-09-14T09:14:35.695Z,119.57
2022-09-14T09:17:10.335Z,121.07
2022-09-14T09:19:51.799Z,114.55
2022-09-14T09:22:22.782Z,109.82
2022-09-14T09:24:53.887Z,110.05
2022-09-14T09:27:20.741Z,112.22
2022-09-14T09:29:48.089Z,109.63
2022-09-14T09:32:19.352Z,119.78
2022-09-14T09:34:46.009Z,116.63
2022-09-14T09:37:18.003Z,116.63
2022-09-14T09:39:44.856Z,121.53
2022-09-14T09:42:21.506Z,116.95
2022-09-14T09:44:56.933Z,114.78
2022-09-14T09:47:30.702Z,112.40
2022-09-14T09:50:00.142Z,116.07
2022-09-14T09:52:27.034Z,107.43
2022-09-14T09:54:55.692Z,109.22
2022-09-14T09:57:34.283Z,106.38
2022-09-14T10:00:22.383Z,115.85
2022-09-14T10:02:50.320Z,114.18
2022-09-14T10:05:16.637Z,107.88
2022-09-14T10:07:55.923Z,107.68
2022-09-14T10:10:44.950Z,108.72
2022-09-14T10:13:28.938Z,109.63
2022-09-14T10:16:07.199Z,109.07
2022-09-14T10:18:33.944Z,113.45
2022-09-14T10:21:00.239Z,108.55
2022-09-14T10:23:29.082Z,103.38
2022-09-14T10:26:10.625Z,109.95
2022-09-14T10:28:38.467Z,107.43
2022-09-14T10:31:26.993Z,97.85
2022-09-14T10:33:58.044Z,100.72
2022-09-14T10:36:32.945Z,87.38
2022-09-14T10:39:21.123Z,92.10
2022-09-14T10:42:10.084Z,93.85
2022-09-14T10:44:51.060Z,79.38
2022-09-14T10:47:32.574Z,84.20
2022-09-14T10:50:20.733Z,83.80
2022-09-14T10:53:19.806Z,95.15
2022-09-14T10:56:01.961Z,94.25
2022-09-14T10:58:50.533Z,88.40
2022-09-14T11:01:41.721Z,93.30
2022-09-14T11:04:35.005Z,87.57
2022-09-14T11:07:22.518Z,102.50
2022-09-14T11:10:13.323Z,107.75
2022-09-14T11:13:04.333Z,109.70
2022-09-14T11:15:41.798Z,104.05
2022-09-14T11:18:39.351Z,103.10
2022-09-14T11:21:21.092Z,91.60
2022-09-14T11:24:16.733Z,88.75
2022-09-14T11:26:57.721Z,93.72
2022-09-14T11:29:35.923Z,93.53
2022-09-14T11:32:33.389Z,91.88
2022-09-14T11:35:18.223Z,81.97
2022-09-14T11:37:56.042Z,83.20
2022-09-14T11:40:55.641Z,79.40
2022-09-14T11:43:29.382Z,90.25
2022-09-14T11:46:11.561Z,85.97
2022-09-14T11:48:44.497Z,88.32
2022-09-14T11:51:19.309Z,84.35
2022-09-14T11:53:46.700Z,90.05
2022-09-14T11:56:27.842Z,91.43
2022-09-14T11:58:59.720Z,94.28
2022-09-14T12:01:31.021Z,89.47
2022-09-14T12:03:59.619Z,90.38
2022-09-14T12:06:44.703Z,84.50
2022-09-14T12:09:14.107Z,86.07
2022-09-14T12:11:42.143Z,96.47
2022-09-14T12:14:23.801Z,86.40
2022-09-14T12:17:38.310Z,90.70
2022-09-14T12:20:38.119Z,96.35
2022-09-14T12:23:07.689Z,88.70
2022-09-14T12:25:34.771Z,87.47
2022-09-14T12:28:01.291Z,83.40
2022-09-14T12:30:41.303Z,89.30
2022-09-14T12:33:35.674Z,88.10
2022-09-14T12:36:06.185Z,91.28
2022-09-14T12:38:55.173Z,93.15
2022-09-14T12:41:21.414Z,92.93
2022-09-14T12:43:51.457Z,90.15
2022-09-14T12:46:21.234Z,85.60
2022-09-14T12:48:47.804Z,93.85
2022-09-14T12:51:36.545Z,97.93
2022-09-14T12:54:08.984Z,94.35
2022-09-14T12:57:09.620Z,98.20
2022-09-14T13:00:08.536Z,94.32
2022-09-14T13:02:43.517Z,88.63
2022-09-14T13:05:16.952Z,94.93
2022-09-14T13:07:44.329Z,92.68
2022-09-14T13:10:22.668Z,97.50
2022-09-14T13:12:50.587Z,94.57
2022-09-14T13:15:33.559Z,97.50
2022-09-14T13:18:03.729Z,98.00
2022-09-14T13:20:32.933Z,100.05
2022-09-14T13:22:59.626Z,101.70
2022-09-14T13:25:37.914Z,93.63
2022-09-14T13:28:13.900Z,92.43
2022-09-14T13:30:43.166Z,92.05
2022-09-14T13:33:17.715Z,88.70
2022-09-14T13:35:53.201Z,93.95
2022-09-14T13:38:30.578Z,87.57
2022-09-14T13:41:06.695Z,84.45
2022-09-14T13:43:33.839Z,92.05
2022-09-14T13:46:00.975Z,90.20
2022-09-14T13:48:27.583Z,88.43
2022-09-14T13:50:54.074Z,92.43
2022-09-14T13:53:57.750Z,90.28
2022-09-14T13:56:26.790Z,95.75
2022-09-14T13:59:08.103Z,90.40
2022-09-14T14:01:42.948Z,84.80
2022-09-14T14:04:37.324Z,94.57
2022-09-14T14:07:12.826Z,89.82
2022-09-14T14:09:50.650Z,93.57
2022-09-14T14:12:29.533Z,92.15
2022-09-14T14:15:03.592Z,94.28
2022-09-14T14:17:29.896Z,97.97
2022-09-14T14:19:59.343Z,93.65
2022-09-14T14:22:29.317Z,103.63
2022-09-14T14:25:12.737Z,95.38
2022-09-14T14:27:46.021Z,84.35
2022-09-14T14:30:22.141Z,85.72
2022-09-14T14:32:53.665Z,77.72
2022-09-14T14:35:23.296Z,72.13
2022-09-14T14:37:50.617Z,72.25
2022-09-14T14:40:18.461Z,73.47
2022-09-14T14:42:45.947Z,72.93
2022-09-14T14:45:19.117Z,71.53
2022-09-14T14:47:46.834Z,72.13
2022-09-14T14:50:18.560Z,67.25
2022-09-14T14:52:44.975Z,65.65
2022-09-14T14:55:11.565Z,69.82
2022-09-14T14:57:38.860Z,67.15
2022-09-14T15:00:12.973Z,64.97
2022-09-14T15:02:39.308Z,67.97
2022-09-14T15:05:06.142Z,71.50
2022-09-14T15:07:37.084Z,68.40
2022-09-14T15:10:05.687Z,73.05
2022-09-14T15:12:32.986Z,68.68
2022-09-14T15:15:00.356Z,68.40
2022-09-14T15:17:26.787Z,69.97
2022-09-14T15:19:53.160Z,70.25
2022-09-14T15:22:19.721Z,69.47
2022-09-14T15:24:46.073Z,68.30
2022-09-14T15:27:12.571Z,66.13
2022-09-14T15:29:39.140Z,64.28
2022-09-14T15:32:05.586Z,69.38
2022-09-14T15:34:32.052Z,72.10
2022-09-14T15:36:58.876Z,67.00
2022-09-14T15:39:27.410Z,70.90
2022-09-14T15:41:54.533Z,67.43
2022-09-14T15:44:21.223Z,70.18
2022-09-14T15:46:48.186Z,73.00
2022-09-14T15:49:21.083Z,65.93
2022-09-14T15:51:52.800Z,64.07
2022-09-14T15:54:23.015Z,65.97
2022-09-14T15:56:51.207Z,67.10
2022-09-14T15:59:19.284Z,67.97
2022-09-14T16:01:46.632Z,66.07
2022-09-14T16:04:13.343Z,65.85
2022-09-14T16:06:40.242Z,71.72
2022-09-14T16:09:09.232Z,73.80
2022-09-14T16:11:36.770Z,69.93
2022-09-14T16:14:05.448Z,68.13
2022-09-14T16:16:33.464Z,66.90
2022-09-14T16:19:14.912Z,66.53
2022-09-14T16:21:42.390Z,66.78
2022-09-14T16:24:13.426Z,51.65
2022-09-14T16:26:40.657Z,48.85
2022-09-14T16:29:08.451Z,55.88
2022-09-14T16:31:37.074Z,55.53
2022-09-14T16:34:24.415Z,54.75
2022-09-14T16:36:51.371Z,54.85
2022-09-14T16:39:20.300Z,64.90
2022-09-14T16:41:46.636Z,55.90
2022-09-14T16:44:16.431Z,53.03
2022-09-14T16:46:43.365Z,52.40
2022-09-14T16:49:10.328Z,52.58
2022-09-14T16:51:37.080Z,50.47
2022-09-14T16:54:04.450Z,55.45
2022-09-14T16:56:33.383Z,58.67
2022-09-14T16:59:00.907Z,64.95
2022-09-14T17:01:32.978Z,62.33
2022-09-14T17:04:03.780Z,63.08
2022-09-14T17:06:31.919Z,65.60
2022-09-14T17:09:04.631Z,60.28
2022-09-14T17:11:32.981Z,63.22
2022-09-14T17:13:59.806Z,53.47
2022-09-14T17:16:28.094Z,53.88
2022-09-14T17:18:58.946Z,57.08
2022-09-14T17:21:36.965Z,69.30
2022-09-14T17:24:07.271Z,59.63
2022-09-14T17:26:35.601Z,58.35
2022-09-14T17:29:03.799Z,57.45
2022-09-14T17:31:33.689Z,59.00
2022-09-14T17:34:04.504Z,56.83
2022-09-14T17:36:31.126Z,61.03
2022-09-14T17:38:59.417Z,60.38
2022-09-14T17:41:30.362Z,62.25
2022-09-14T17:43:59.072Z,67.68
2022-09-14T17:46:26.118Z,71.05
2022-09-14T17:48:52.890Z,71.75
2022-09-14T17:51:22.846Z,69.88
2022-09-14T17:53:51.891Z,74.72
2022-09-14T17:56:21.031Z,71.85
2022-09-14T17:58:48.921Z,75.47
2022-09-14T18:01:21.165Z,76.18
2022-09-14T18:03:57.571Z,67.13
2022-09-14T18:06:27.992Z,73.60
2022-09-14T18:08:56.548Z,74.60
2022-09-14T18:11:23.803Z,66.05
2022-09-14T18:13:50.612Z,68.95
2022-09-14T18:16:19.393Z,68.32
2022-09-14T18:18:48.074Z,68.47
2022-09-14T18:21:16.736Z,67.32
2022-09-14T18:23:43.741Z,66.00
2022-09-14T18:26:10.176Z,65.57
2022-09-14T18:28:36.711Z,66.65
2022-09-14T18:31:07.871Z,65.07
2022-09-14T18:33:35.212Z,68.18
2022-09-14T18:36:02.234Z,68.47
2022-09-14T18:38:29.946Z,65.30
2022-09-14T18:41:03.127Z,65.22
2022-09-14T18:43:29.590Z,71.68
2022-09-14T18:45:55.901Z,71.60
2022-09-14T18:48:22.268Z,74.10
2022-09-14T18:50:48.769Z,73.75
2022-09-14T18:53:15.442Z,68.53
2022-09-14T18:55:41.817Z,71.65
2022-09-14T18:58:08.392Z,73.35
2022-09-14T19:00:35.187Z,66.25
2022-09-14T19:03:01.518Z,75.53
2022-09-14T19:05:29.879Z,74.43
2022-09-14T19:07:56.445Z,74.18
2022-09-14T19:10:23.081Z,79.32
2022-09-14T19:12:49.630Z,81.18
2022-09-14T19:15:16.068Z,84.32
2022-09-14T19:17:42.391Z,78.75
2022-09-14T19:20:10.850Z,82.03
2022-09-14T19:22:37.259Z,76.22
2022-09-14T19:25:04.056Z,81.93
2022-09-14T19:27:30.441Z,75.97
2022-09-14T19:29:56.845Z,78.18
2022-09-14T19:32:23.254Z,76.40
2022-09-14T19:34:49.887Z,78.60
2022-09-14T19:37:16.429Z,76.82
2022-09-14T19:39:42.886Z,75.70
2022-09-14T19:42:09.240Z,77.68
2022-09-14T19:44:35.670Z,77.88
2022-09-14T19:47:02.096Z,74.80
2022-09-14T19:49:28.528Z,79.53
2022-09-14T19:51:55.030Z,81.78
2022-09-14T19:54:22.456Z,76.57
2022-09-14T19:56:48.900Z,74.47
2022-09-14T19:59:16.539Z,79.80
2022-09-14T20:01:44.254Z,79.78
2022-09-14T20:04:11.745Z,74.28
2022-09-14T20:06:42.417Z,77.78
2022-09-14T20:09:13.515Z,80.18
2022-09-14T20:11:41.459Z,73.18
2022-09-14T20:14:11.998Z,79.63
2022-09-14T20:16:44.606Z,81.65
2022-09-14T20:19:16.468Z,77.45
2022-09-14T20:21:44.530Z,85.47
2022-09-14T20:24:17.021Z,83.40
2022-09-14T20:26:45.841Z,82.20
2022-09-14T20:29:12.820Z,86.47
2022-09-14T20:31:39.269Z,88.35
2022-09-14T20:34:05.710Z,87.63
2022-09-14T20:36:32.548Z,82.93
2022-09-14T20:38:59.654Z,82.78
2022-09-14T20:41:30.105Z,89.30
2022-09-14T20:43:56.539Z,87.55
2022-09-14T20:46:28.052Z,89.75
2022-09-14T20:48:57.615Z,89.70
2022-09-14T20:51:25.049Z,90.97
2022-09-14T20:53:52.120Z,96.47
2022-09-14T20:56:24.265Z,90.65
2022-09-14T20:58:54.626Z,92.15
2022-09-14T21:01:22.827Z,93.20
2022-09-14T21:03:50.262Z,92.60
2022-09-14T21:06:20.107Z,91.78
2022-09-14T21:08:46.867Z,95.90
2022-09-14T21:11:19.511Z,89.10
2022-09-14T21:13:49.235Z,90.88
2022-09-14T21:16:19.452Z,89.85
2022-09-14T21:18:48.186Z,94.03
2022-09-14T21:21:17.027Z,86.60
2022-09-14T21:23:43.855Z,91.90
2022-09-14T21:26:11.999Z,93.55
2022-09-14T21:28:40.029Z,86.78
2022-09-14T21:31:13.059Z,89.47
2022-09-14T21:33:41.544Z,86.65
2022-09-14T21:36:14.528Z,88.22
2022-09-14T21:38:41.185Z,88.65
2022-09-14T21:41:09.617Z,88.18
2022-09-14T21:43:38.285Z,92.65
2022-09-14T21:46:05.643Z,90.15
2022-09-14T21:48:32.640Z,89.10
2022-09-14T21:51:17.011Z,90.22
2022-09-14T21:53:55.242Z,89.10
2022-09-14T21:56:25.829Z,87.63
2022-09-14T21:58:54.553Z,94.28
2022-09-14T22:01:21.705Z,91.50
2022-09-14T22:03:51.388Z,90.40
2022-09-14T22:06:22.489Z,93.95
2022-09-14T22:08:50.328Z,97.60
2022-09-14T22:11:22.907Z,96.43
2022-09-14T22:14:05.583Z,95.10
2022-09-14T22:16:34.299Z,96.53
2022-09-14T22:19:03.980Z,93.50
2022-09-14T22:21:31.664Z,94.53
2022-09-14T22:24:00.319Z,95.63
2022-09-14T22:26:29.032Z,95.45
2022-09-14T22:28:57.261Z,89.50
2022-09-14T22:31:26.928Z,93.57
2022-09-14T22:33:59.480Z,96.32
2022-09-14T22:36:26.809Z,89.90
2022-09-14T22:38:58.584Z,94.38
2022-09-14T22:41:26.404Z,91.80
2022-09-14T22:43:53.256Z,89.05
2022-09-14T22:46:20.342Z,91.43
2022-09-14T22:48:46.874Z,96.75
2022-09-14T22:51:21.607Z,89.18
2022-09-14T22:53:48.056Z,90.55
2022-09-14T22:56:19.602Z,92.57
2022-09-14T22:58:46.912Z,93.63
2022-09-14T23:01:18.275Z,89.45
2022-09-14T23:03:45.142Z,89.20
2022-09-14T23:06:11.961Z,97.88
2022-09-14T23:08:39.581Z,92.28
2022-09-14T23:11:10.049Z,94.28
2022-09-14T23:13:41.169Z,92.22
2022-09-14T23:16:15.533Z,86.85
2022-09-14T23:18:42.508Z,90.40
2022-09-14T23:21:09.659Z,84.22
2022-09-14T23:23:38.024Z,90.47
2022-09-14T23:26:11.752Z,88.13
2022-09-14T23:28:38.651Z,90.38
2022-09-14T23:31:05.967Z,95.28
2022-09-14T23:33:32.823Z,95.68
2022-09-14T23:35:59.229Z,91.68
2022-09-14T23:38:25.837Z,94.93
2022-09-14T23:40:52.349Z,89.97
2022-09-14T23:43:19.556Z,89.97
2022-09-14T23:45:47.272Z,95.15
2022-09-14T23:48:14.892Z,90.18
2022-09-14T23:50:41.247Z,92.50
2022-09-14T23:53:08.294Z,90.75
2022-09-14T23:55:34.710Z,89.78
2022-09-14T23:58:01.066Z,85.40
